Aérodrome :
LOGIN :

S'inscrire | Disclaimer

   EN    FR    IT 

 










Légende :    VFR   VFR Marginal   IFR   IFR Intensif   IFR Très Intensif
Visi : 
Plafond : 
>= 8 km
>= 3000ft
5 à 8 km
1000 à 3000 ft
1500m à 5 km
500 à 1000 ft
800 à 1500m
200 à 500 ft
< 800m
< 200 ft
Symboles :   Orages  Brouillard  Fortes neiges  Fortes précipitations  Vent > 20 kt
SIGMETs :   Divers  Orages  Givrage  Turbulence  Onde Orograph.  Cendres Volcan.







- Altitude de l'aérodrome : 3 ft
- Code IATA : LWR


EHLW - Leuuwarden Air Base

DERNIER METAR :
  • 181525Z AUTO 24014KT 210V270 9999 SCT010 SCT014 BKN016 17/15 Q1018 GRN RMK R23

METARs EXPIRÉS :
  • 181455Z AUTO 25012KT 210V270 5000 BR SCT006 BKN008 BKN009 17/15 Q1018 REDZ YLO RMK R23
  • 181425Z AUTO 25014KT 210V280 9999 +DZ FEW009 BKN016 OVC020 17/15 Q1018 WHT RMK R23
  • 181355Z AUTO 24014KT 210V270 9999 BKN016 BKN028 BKN032 19/14 Q1018 WHT 24012G22KT 9999 SCT016 BKN025 RMK R23
  • 181325Z AUTO 24016KT 200V270 9999 FEW015 SCT019 BKN025 18/14 Q1017 WHT 24012G22KT 9999 SCT015 BKN025 RMK R23
  • 181255Z AUTO 25016KT 210V280 9999 FEW013 BKN016 BKN024 19/15 Q1017 WHT 24012G22KT 9999 SCT015 BKN025 RMK R23

TAF TAF EHLW
Valide du 18 à 09h jusqu'au 18 à 21h UTC


180811Z 1809/1821 22010KT 9999 SCT007 BKN015
PROB30
TEMPO 1809/1811 3000 -RADZ SCT004 BKN006
BECMG 1811/1813 SCT014 BKN020
BECMG 1814/1816 SCT020 SCT040
Pas de NOTAMs connus pour ce terrain.



MET'MAP, la Météo Aéronautique d'un coup d'oeil ! - Copyright ORBIFLY Décembre 2007 - Disclaimer

ORBIFLY MET'MAP TEAM :

Programmation & Développement : Alexandra Zaïnal
Conception & Développement : Baudouin d'Aumeries
Co-Programmation & Développement : Marc-Olivier Méhu
Soutien technique & logistique : Manuel Goepfert

Contact : metmap@orbifly.com




SOURCES & CREDITS :

   NOAA